createdAt,value
2019-04-22T05:33:15.374Z,16.80
2019-04-22T05:36:30.110Z,16.57
2019-04-22T05:39:25.034Z,17.45
2019-04-22T05:45:38.650Z,15.90
2019-04-22T05:48:43.975Z,15.00
2019-04-22T05:51:50.685Z,15.20
2019-04-22T05:54:57.692Z,15.78
2019-04-22T06:04:36.851Z,15.83
2019-04-22T06:08:02.347Z,15.55
2019-04-22T06:11:04.116Z,15.25
2019-04-22T06:14:02.293Z,15.28
2019-04-22T06:17:20.222Z,15.00
2019-04-22T06:20:21.842Z,14.07
2019-04-22T06:24:27.430Z,14.35
2019-04-22T06:27:55.003Z,14.07
2019-04-22T06:31:14.105Z,14.00
2019-04-22T06:37:01.916Z,13.28
2019-04-22T06:39:51.167Z,13.72
2019-04-22T06:43:01.073Z,12.25
2019-04-22T06:45:45.338Z,11.88
2019-04-22T06:48:59.848Z,11.83
2019-04-22T06:52:16.929Z,11.45
2019-04-22T06:55:09.688Z,10.93
2019-04-22T06:58:04.583Z,10.93
2019-04-22T07:05:13.115Z,10.90
2019-04-22T07:12:08.510Z,11.33
2019-04-22T07:15:44.148Z,10.05
2019-04-22T07:19:05.978Z,10.23
2019-04-22T07:22:51.282Z,10.65
2019-04-22T07:27:27.488Z,10.28
2019-04-22T07:39:39.595Z,9.05
2019-04-22T07:42:57.745Z,9.80
2019-04-22T07:46:09.590Z,9.00
2019-04-22T07:49:10.862Z,9.05
2019-04-22T07:52:09.977Z,8.58
2019-04-22T07:55:07.579Z,8.90
2019-04-22T07:58:19.548Z,8.60
2019-04-22T08:01:21.309Z,8.40
2019-04-22T08:04:30.074Z,8.13
2019-04-22T08:07:18.178Z,8.13
2019-04-22T08:13:22.967Z,7.45
2019-04-22T08:16:17.008Z,7.75
2019-04-22T08:19:16.982Z,7.37
2019-04-22T08:22:14.616Z,7.15
2019-04-22T08:25:24.826Z,7.40
2019-04-22T08:28:25.566Z,7.87
2019-04-22T08:34:20.860Z,7.15
2019-04-22T08:37:41.499Z,6.83
2019-04-22T08:40:21.023Z,6.62
2019-04-22T08:43:21.698Z,6.95
2019-04-22T08:46:23.423Z,6.33
2019-04-22T08:49:10.213Z,6.55
2019-04-22T08:52:16.511Z,6.10
2019-04-22T08:55:12.687Z,6.42
2019-04-22T09:01:11.327Z,6.78
2019-04-22T09:04:10.421Z,6.42
2019-04-22T09:10:03.406Z,6.22
2019-04-22T09:13:30.141Z,6.87
2019-04-22T09:16:46.299Z,7.17
2019-04-22T09:19:40.842Z,6.97
2019-04-22T09:23:23.574Z,6.72
2019-04-22T09:33:59.098Z,6.87
2019-04-22T09:37:20.423Z,6.72
2019-04-22T09:42:31.829Z,6.20
2019-04-22T09:43:49.036Z,6.37
2019-04-22T09:47:00.027Z,6.42
2019-04-22T09:53:43.035Z,6.15
2019-04-22T09:56:33.306Z,6.90
2019-04-22T09:59:35.266Z,6.70
2019-04-22T10:02:38.204Z,6.62
2019-04-22T10:05:33.879Z,7.53
2019-04-22T10:08:31.676Z,7.20
2019-04-22T10:11:35.036Z,7.12
2019-04-22T10:14:39.957Z,6.53
2019-04-22T10:22:14.957Z,7.37
2019-04-22T10:25:35.174Z,7.30
2019-04-22T10:28:44.692Z,6.87
2019-04-22T10:31:52.667Z,7.30
2019-04-22T10:34:29.150Z,7.62
2019-04-22T10:37:48.126Z,7.62
2019-04-22T10:41:06.544Z,7.42
2019-04-22T10:48:08.100Z,6.70
2019-04-22T10:54:49.401Z,7.12
2019-04-22T11:05:26.283Z,7.30
2019-04-22T11:08:40.716Z,7.00
2019-04-22T11:11:41.163Z,6.95
2019-04-22T11:14:26.459Z,6.72
2019-04-22T11:17:39.674Z,6.65
2019-04-22T11:20:37.693Z,7.17
2019-04-22T11:23:47.033Z,7.35
2019-04-22T11:26:43.414Z,6.75
2019-04-22T11:29:43.475Z,7.67
2019-04-22T11:32:40.433Z,7.22
2019-04-22T11:35:37.655Z,7.28
2019-04-22T11:38:48.557Z,6.97
2019-04-22T11:41:55.979Z,7.17
2019-04-22T11:45:15.209Z,6.65
2019-04-22T11:48:33.870Z,6.92
2019-04-22T11:52:12.495Z,7.50
2019-04-22T11:55:36.994Z,7.35
2019-04-22T11:58:46.936Z,8.18
2019-04-22T12:02:04.720Z,7.30
2019-04-22T12:05:41.710Z,6.92
2019-04-22T12:08:18.662Z,7.10
2019-04-22T12:11:26.286Z,6.62
2019-04-22T12:14:21.938Z,7.03
2019-04-22T12:17:22.163Z,6.75
2019-04-22T12:20:29.326Z,6.90
2019-04-22T12:23:25.054Z,7.42
2019-04-22T12:26:52.734Z,6.85
2019-04-22T12:29:51.173Z,7.78
2019-04-22T12:33:02.233Z,7.20
2019-04-22T12:36:00.281Z,7.25
2019-04-22T12:41:25.892Z,7.25
2019-04-22T12:44:24.285Z,6.97
2019-04-22T12:47:22.114Z,7.40
2019-04-22T12:50:25.567Z,7.60
2019-04-22T12:53:19.776Z,7.37
2019-04-22T12:56:12.935Z,7.12
2019-04-22T12:59:25.790Z,7.70
2019-04-22T13:02:54.715Z,7.62
2019-04-22T13:09:57.000Z,7.03
2019-04-22T13:13:05.002Z,7.97
2019-04-22T13:15:57.013Z,7.08
2019-04-22T13:18:56.536Z,7.08
2019-04-22T13:21:51.008Z,7.12
2019-04-22T13:24:47.903Z,6.78
2019-04-22T13:27:44.960Z,6.85
2019-04-22T13:30:40.964Z,6.87
2019-04-22T13:33:36.963Z,6.85
2019-04-22T13:36:34.626Z,6.87
2019-04-22T13:39:41.463Z,7.47
2019-04-22T13:42:40.700Z,8.00
2019-04-22T13:45:36.175Z,7.67
2019-04-22T13:48:53.786Z,7.25
2019-04-22T13:52:02.696Z,6.85
2019-04-22T13:57:37.862Z,7.47
2019-04-22T14:00:18.403Z,7.50
2019-04-22T14:03:24.773Z,7.60
2019-04-22T14:06:20.685Z,7.72
2019-04-22T14:09:19.074Z,7.60
2019-04-22T14:12:18.353Z,7.80
2019-04-22T14:15:13.831Z,7.60
2019-04-22T14:18:10.653Z,7.40
2019-04-22T14:21:07.078Z,7.50
2019-04-22T14:24:02.728Z,7.10
2019-04-22T14:27:15.152Z,8.03
2019-04-22T14:29:55.656Z,7.75
2019-04-22T14:32:51.227Z,7.42
2019-04-22T14:35:47.968Z,7.80
2019-04-22T14:38:43.810Z,7.42
2019-04-22T14:41:55.438Z,7.67
2019-04-22T14:48:02.693Z,7.55
2019-04-22T14:50:53.175Z,7.62
2019-04-22T14:53:44.917Z,7.67
2019-04-22T14:56:22.345Z,8.33
2019-04-22T14:59:16.748Z,7.97
2019-04-22T15:02:13.859Z,7.22
2019-04-22T15:05:10.201Z,7.33
2019-04-22T15:08:06.771Z,7.25
2019-04-22T15:11:02.154Z,7.47
2019-04-22T15:13:59.127Z,8.33
2019-04-22T15:17:13.044Z,7.97
2019-04-22T15:20:27.764Z,7.85
2019-04-22T15:23:22.710Z,8.08
2019-04-22T15:26:17.724Z,7.50
2019-04-22T15:29:15.619Z,7.40
2019-04-22T15:32:13.418Z,7.92
2019-04-22T15:35:09.176Z,7.55
2019-04-22T15:38:04.781Z,8.05
2019-04-22T15:41:00.747Z,7.92
2019-04-22T15:43:57.436Z,7.95
2019-04-22T15:46:55.067Z,7.75
2019-04-22T15:49:50.009Z,8.18
2019-04-22T15:52:51.330Z,8.05
2019-04-22T15:55:42.842Z,8.43
2019-04-22T15:58:39.642Z,8.58
2019-04-22T16:01:37.856Z,8.10
2019-04-22T16:04:32.564Z,7.70
2019-04-22T16:07:27.905Z,8.05
2019-04-22T16:10:23.973Z,8.28
2019-04-22T16:13:23.237Z,7.83
2019-04-22T16:16:14.894Z,8.63
2019-04-22T16:19:10.026Z,8.23
2019-04-22T16:22:09.520Z,7.90
2019-04-22T16:25:19.420Z,8.33
2019-04-22T16:28:15.393Z,8.85
2019-04-22T16:31:11.289Z,8.08
2019-04-22T16:34:07.631Z,8.18
2019-04-22T16:37:02.895Z,8.33
2019-04-22T16:40:00.760Z,8.53
2019-04-22T16:42:59.282Z,8.43
2019-04-22T16:45:53.683Z,8.88
2019-04-22T16:48:51.693Z,8.15
2019-04-22T16:51:47.821Z,8.18
2019-04-22T16:54:44.344Z,8.70
2019-04-22T16:57:42.083Z,8.78
2019-04-22T17:00:40.589Z,8.33
2019-04-22T17:04:06.917Z,8.58
2019-04-22T17:07:03.593Z,7.80
2019-04-22T17:09:59.625Z,8.73
2019-04-22T17:13:03.422Z,8.25
2019-04-22T17:15:56.784Z,8.70
2019-04-22T17:18:54.113Z,8.88
2019-04-22T17:21:49.953Z,8.10
2019-04-22T17:24:47.815Z,8.18
2019-04-22T17:27:43.460Z,8.65
2019-04-22T17:30:39.474Z,8.30
2019-04-22T17:33:37.135Z,8.35
2019-04-22T17:36:34.095Z,8.13
2019-04-22T17:39:41.186Z,8.48
2019-04-22T17:42:46.180Z,8.13
2019-04-22T17:45:56.632Z,8.50
2019-04-22T17:48:57.822Z,8.08
2019-04-22T17:52:17.664Z,8.70
2019-04-22T17:55:05.011Z,9.45
2019-04-22T17:58:13.017Z,8.93
2019-04-22T18:01:05.878Z,8.03
2019-04-22T18:03:45.771Z,8.93
2019-04-22T18:07:03.862Z,9.20
2019-04-22T18:10:24.307Z,9.03
2019-04-22T18:12:59.909Z,9.50
2019-04-22T18:15:48.191Z,8.30
2019-04-22T18:18:47.383Z,8.80
2019-04-22T18:21:35.077Z,8.95
2019-04-22T18:24:26.488Z,9.55
2019-04-22T18:30:27.450Z,9.38
2019-04-22T18:33:26.006Z,9.60
2019-04-22T18:36:19.384Z,9.15
2019-04-22T18:39:22.364Z,9.18
2019-04-22T18:42:09.391Z,8.58
2019-04-22T18:45:31.281Z,9.48
2019-04-22T18:47:59.853Z,9.78
2019-04-22T18:51:11.926Z,9.78
2019-04-22T18:54:14.731Z,9.63
2019-04-22T18:57:07.427Z,10.05
2019-04-22T18:59:48.979Z,9.78
2019-04-22T19:02:50.804Z,8.88
2019-04-22T19:06:03.639Z,9.78
2019-04-22T19:09:08.621Z,9.00
2019-04-22T19:12:08.037Z,9.88
2019-04-22T19:15:12.781Z,9.83
2019-04-22T19:17:54.465Z,10.20
2019-04-22T19:20:51.963Z,10.20
2019-04-22T19:23:40.758Z,9.28
2019-04-22T19:26:57.739Z,10.68
2019-04-22T19:29:41.301Z,9.30
2019-04-22T19:32:37.148Z,9.63
2019-04-22T19:35:22.780Z,9.48
2019-04-22T19:38:16.409Z,9.53
2019-04-22T19:41:24.371Z,9.50
2019-04-22T19:44:20.131Z,10.25
2019-04-22T19:47:25.487Z,9.93
2019-04-22T19:50:16.549Z,9.23
2019-04-22T19:53:10.681Z,10.53
2019-04-22T19:56:01.478Z,10.13
2019-04-22T19:58:56.338Z,10.13
2019-04-22T20:02:09.650Z,10.45
2019-04-22T20:05:22.061Z,11.08
2019-04-22T20:08:17.767Z,10.13
2019-04-22T20:11:15.135Z,10.70
2019-04-22T20:14:12.617Z,10.53
2019-04-22T20:17:02.193Z,11.00
2019-04-22T20:20:14.409Z,10.03
2019-04-22T20:22:59.003Z,11.43
2019-04-22T20:25:51.141Z,10.98
2019-04-22T20:28:52.975Z,11.08
2019-04-22T20:31:53.096Z,10.20
2019-04-22T20:34:51.142Z,10.58
2019-04-22T20:37:49.742Z,9.65
2019-04-22T20:40:39.889Z,10.38
2019-04-22T20:46:44.762Z,10.20
2019-04-22T20:49:48.324Z,10.15
2019-04-22T20:52:46.820Z,10.63
2019-04-22T20:55:45.017Z,10.28
2019-04-22T20:58:38.813Z,10.35
2019-04-22T21:01:33.499Z,9.18
2019-04-22T21:04:22.442Z,10.08
2019-04-22T21:07:23.812Z,9.75
2019-04-22T21:10:19.881Z,10.40
2019-04-22T21:13:17.062Z,9.68
2019-04-22T21:16:22.246Z,10.93
2019-04-22T21:19:23.097Z,9.35
2019-04-22T21:22:18.200Z,8.60
2019-04-22T21:25:02.400Z,9.83
2019-04-22T21:28:04.496Z,10.00
2019-04-22T21:30:59.691Z,9.33
2019-04-22T21:33:50.261Z,9.90
2019-04-22T21:36:56.039Z,10.15
2019-04-22T21:39:42.029Z,10.48
2019-04-22T21:42:47.298Z,10.35
2019-04-22T21:45:31.018Z,9.68
2019-04-22T21:48:57.963Z,9.93
2019-04-22T21:51:39.727Z,9.25
2019-04-22T21:54:34.394Z,9.58
2019-04-22T21:57:50.525Z,9.38
2019-04-22T22:03:50.650Z,9.50
2019-04-22T22:06:37.994Z,9.45
2019-04-22T22:09:43.962Z,9.25
2019-04-22T22:12:42.523Z,8.85
2019-04-22T22:15:37.701Z,9.48
2019-04-22T22:18:23.433Z,9.68
2019-04-22T22:21:41.908Z,10.00
2019-04-22T22:24:28.927Z,10.18
2019-04-22T22:27:18.545Z,9.43
2019-04-22T22:30:38.523Z,10.25
2019-04-22T22:33:10.965Z,9.33
2019-04-22T22:36:04.978Z,9.80
2019-04-22T22:38:58.528Z,9.55
2019-04-22T22:41:39.830Z,10.20
2019-04-22T22:44:41.694Z,10.72
2019-04-22T22:47:57.869Z,10.78
2019-04-22T22:50:46.083Z,9.50
2019-04-22T22:53:46.326Z,10.55
2019-04-22T22:56:47.461Z,10.45
2019-04-22T22:59:35.732Z,9.33
2019-04-22T23:02:28.700Z,9.80
2019-04-22T23:05:35.430Z,10.03
2019-04-22T23:08:38.217Z,9.98
2019-04-22T23:11:40.373Z,10.30
2019-04-22T23:14:21.935Z,9.65
2019-04-22T23:17:02.895Z,9.73
2019-04-22T23:19:54.112Z,10.53
2019-04-22T23:23:09.027Z,11.38
2019-04-22T23:26:17.163Z,12.13
2019-04-22T23:29:03.437Z,11.10
2019-04-22T23:31:59.647Z,12.85
2019-04-22T23:35:01.742Z,13.68
2019-04-22T23:38:01.433Z,11.00
2019-04-22T23:40:54.200Z,12.93
2019-04-22T23:43:56.252Z,12.58
2019-04-22T23:46:54.673Z,9.70
2019-04-22T23:49:53.479Z,11.00
2019-04-22T23:53:06.053Z,9.83
2019-04-22T23:55:54.305Z,11.57
2019-04-22T23:58:52.661Z,16.77
